Time;durP1;ratioP1;P1;durP2;ratioP2;P2;SDS_P1;SDS_P2;PMS_P1;PMS_P2;Temp;Humidity;BMP_temperature;BMP_pressure;BME280_temperature;BME280_humidity;BME280_pressure;Samples;Min_cycle;Max_cycle;Signal;HPM_P1;HPM_P2
2023/08/20 00:00:35;;;;;;;21.05;14.70;;;;;;;22.51;100.00;101089.09;5066353;28;20321;-84
2023/08/20 00:03:12;;;;;;;21.70;14.98;;;;;;;22.44;100.00;101080.22;5046487;28;20064;-82
2023/08/20 00:05:39;;;;;;;19.83;14.43;;;;;;;22.47;100.00;101082.47;5053506;28;20036;-84
2023/08/20 00:08:05;;;;;;;18.50;13.87;;;;;;;22.34;100.00;101083.06;5063473;28;20043;-83
2023/08/20 00:10:32;;;;;;;20.85;14.48;;;;;;;22.27;100.00;101100.88;5065424;28;20093;-81
2023/08/20 00:12:58;;;;;;;20.00;14.25;;;;;;;22.30;100.00;101093.91;5037035;28;20049;-82
2023/08/20 00:15:28;;;;;;;19.83;14.20;;;;;;;22.42;100.00;101097.22;5063870;28;20045;-83
2023/08/20 00:17:55;;;;;;;19.02;13.88;;;;;;;22.51;100.00;101107.75;5068042;28;20043;-82
2023/08/20 00:20:22;;;;;;;21.65;13.80;;;;;;;22.35;100.00;101113.34;5062628;28;20127;-85
2023/08/20 00:22:48;;;;;;;20.00;14.47;;;;;;;22.27;100.00;101114.75;5059638;28;20126;-86
2023/08/20 00:25:16;;;;;;;24.92;16.23;;;;;;;22.25;100.00;101110.63;5059247;28;20317;-85
2023/08/20 00:27:43;;;;;;;24.85;15.10;;;;;;;22.29;100.00;101106.16;5065688;28;20503;-84
2023/08/20 00:30:10;;;;;;;21.63;15.50;;;;;;;22.26;100.00;101093.66;5071065;28;20036;-82
2023/08/20 00:32:37;;;;;;;21.17;15.60;;;;;;;22.31;100.00;101090.03;5047632;28;20048;-82
2023/08/20 00:35:07;;;;;;;22.67;16.42;;;;;;;22.16;100.00;101096.50;5061716;28;20292;-85
2023/08/20 00:37:33;;;;;;;21.98;15.38;;;;;;;22.24;100.00;101093.09;5051046;28;20040;-84
2023/08/20 00:39:59;;;;;;;24.63;16.83;;;;;;;22.11;100.00;101091.78;5065100;28;20044;-84
2023/08/20 00:42:25;;;;;;;25.42;16.88;;;;;;;21.92;100.00;101080.47;5066061;28;20040;-80
2023/08/20 00:44:52;;;;;;;30.02;18.35;;;;;;;22.01;100.00;101079.88;5048170;28;20110;-85
2023/08/20 00:47:19;;;;;;;27.17;16.77;;;;;;;22.10;100.00;101083.75;5048374;28;20451;-84
2023/08/20 00:49:47;;;;;;;25.27;17.67;;;;;;;22.06;100.00;101089.03;5060612;28;20289;-85
2023/08/20 00:52:16;;;;;;;23.25;16.55;;;;;;;22.02;100.00;101084.34;5066352;28;20037;-88
2023/08/20 00:54:44;;;;;;;23.38;17.67;;;;;;;22.02;100.00;101092.69;5067202;28;20124;-84
2023/08/20 00:57:10;;;;;;;;;;;;;;;21.89;100.00;101089.38;5051025;28;20032;-84
2023/08/20 00:59:36;;;;;;;23.48;16.35;;;;;;;22.12;100.00;101093.44;5060437;28;19938;-82
2023/08/20 01:02:03;;;;;;;24.70;16.17;;;;;;;22.08;100.00;101092.34;5067203;28;20511;-83
2023/08/20 01:04:30;;;;;;;23.55;17.73;;;;;;;21.96;100.00;101094.63;5035302;28;20036;-83
2023/08/20 01:07:21;;;;;;;21.75;16.60;;;;;;;22.06;100.00;101094.59;5051130;28;20094;-86
2023/08/20 01:10:08;;;;;;;24.23;17.48;;;;;;;22.06;100.00;101104.88;5065144;28;20028;-87
2023/08/20 01:12:36;;;;;;;25.83;18.10;;;;;;;21.97;100.00;101101.84;5064662;28;20036;-84
2023/08/20 01:15:02;;;;;;;24.20;18.40;;;;;;;21.82;100.00;101089.66;5048917;28;20064;-85
2023/08/20 01:17:29;;;;;;;28.35;19.30;;;;;;;21.75;100.00;101088.28;5055259;28;20040;-86
2023/08/20 01:19:55;;;;;;;22.83;16.58;;;;;;;21.63;100.00;101106.06;5065913;28;20033;-87
2023/08/20 01:22:44;;;;;;;24.23;16.40;;;;;;;21.69;100.00;101131.91;5047850;28;20120;-85
2023/08/20 01:25:24;;;;;;;23.58;14.90;;;;;;;21.63;100.00;101141.34;5036282;28;20451;-81
2023/08/20 01:28:02;;;;;;;21.08;14.23;;;;;;;21.66;100.00;101147.16;5064281;28;20032;-83
2023/08/20 01:30:30;;;;;;;22.65;14.73;;;;;;;21.63;100.00;101147.69;5066889;28;20416;-83
2023/08/20 01:32:57;;;;;;;20.05;13.38;;;;;;;21.67;100.00;101154.38;5050245;28;20048;-85
2023/08/20 01:35:26;;;;;;;20.73;14.10;;;;;;;21.67;100.00;101156.34;5050354;28;20516;-82
2023/08/20 01:38:02;;;;;;;22.00;12.27;;;;;;;21.72;100.00;101172.16;5050628;28;20044;-81
2023/08/20 01:40:30;;;;;;;17.58;13.32;;;;;;;21.80;100.00;101177.97;5068652;28;20360;-84
2023/08/20 01:42:56;;;;;;;20.73;13.70;;;;;;;21.64;100.00;101174.38;5067201;28;20028;-81
2023/08/20 01:45:22;;;;;;;19.95;13.25;;;;;;;21.69;100.00;101177.16;5050756;28;20484;-82
2023/08/20 01:47:49;;;;;;;17.67;12.52;;;;;;;21.50;100.00;101173.28;5062965;28;20408;-83
2023/08/20 01:50:15;;;;;;;18.77;12.55;;;;;;;21.37;100.00;101178.25;5066270;28;20035;-81
2023/08/20 01:52:41;;;;;;;14.88;11.73;;;;;;;21.55;100.00;101185.19;5047441;28;20867;-81
2023/08/20 01:55:09;;;;;;;16.17;11.35;;;;;;;21.48;100.00;101175.47;5049115;28;20035;-81
2023/08/20 01:57:35;;;;;;;18.35;12.45;;;;;;;21.39;100.00;101167.69;5067468;28;20068;-81
2023/08/20 02:00:01;;;;;;;20.92;12.57;;;;;;;21.30;100.00;101161.06;5051006;28;20029;-81
2023/08/20 02:02:27;;;;;;;17.55;12.23;;;;;;;21.20;100.00;101145.22;5050470;28;20484;-80
2023/08/20 02:04:54;;;;;;;17.80;12.68;;;;;;;21.19;100.00;101142.72;5067030;28;20036;-81
2023/08/20 02:07:20;;;;;;;13.93;11.18;;;;;;;21.21;100.00;101140.50;5064647;28;20369;-82
2023/08/20 02:09:46;;;;;;;17.58;12.40;;;;;;;21.16;100.00;101137.72;5062634;28;20041;-82
2023/08/20 02:12:12;;;;;;;18.90;12.82;;;;;;;21.04;100.00;101130.53;5065913;28;20104;-81
2023/08/20 02:14:38;;;;;;;16.38;12.30;;;;;;;20.95;100.00;101119.13;5049843;28;20041;-81
2023/08/20 02:17:05;;;;;;;18.88;12.73;;;;;;;20.94;100.00;101106.38;5049789;28;20384;-81
2023/08/20 02:19:31;;;;;;;20.15;14.45;;;;;;;20.86;100.00;101100.53;5064761;28;20044;-81
2023/08/20 02:21:57;;;;;;;18.38;12.90;;;;;;;20.74;100.00;101093.31;5061196;28;20032;-80
2023/08/20 02:24:23;;;;;;;22.10;13.82;;;;;;;20.70;100.00;101086.66;5033838;28;20041;-81
2023/08/20 02:26:50;;;;;;;18.95;13.73;;;;;;;20.70;100.00;101089.41;5067210;28;20037;-80
2023/08/20 02:29:16;;;;;;;19.27;13.98;;;;;;;20.64;100.00;101087.72;5062452;28;20032;-81
2023/08/20 02:31:42;;;;;;;18.92;13.98;;;;;;;20.62;100.00;101087.16;5050825;28;20026;-81
2023/08/20 02:34:08;;;;;;;20.02;13.90;;;;;;;20.57;100.00;101081.63;5063470;28;20120;-81
2023/08/20 02:36:34;;;;;;;18.80;14.00;;;;;;;20.47;100.00;101077.72;5067587;28;20040;-81
2023/08/20 02:39:03;;;;;;;22.15;14.57;;;;;;;20.45;100.00;101066.09;5064453;28;20180;-81
2023/08/20 02:41:29;;;;;;;20.48;14.38;;;;;;;20.40;100.00;101061.34;5065443;28;20043;-82
2023/08/20 02:43:55;;;;;;;20.92;14.60;;;;;;;20.37;100.00;101055.53;5064769;28;20033;-83
2023/08/20 02:46:21;;;;;;;20.77;14.65;;;;;;;20.36;100.00;101062.16;5061685;28;20100;-82
2023/08/20 02:48:47;;;;;;;23.73;14.27;;;;;;;20.23;100.00;101060.75;5069954;28;20024;-82
2023/08/20 02:51:14;;;;;;;24.55;14.77;;;;;;;20.23;100.00;101064.34;5064594;28;20111;-82
2023/08/20 02:53:40;;;;;;;22.48;14.02;;;;;;;20.12;100.00;101076.50;5077599;28;20084;-82
2023/08/20 02:56:06;;;;;;;20.08;12.70;;;;;;;20.18;100.00;101078.19;5091141;28;20027;-82
2023/08/20 02:58:32;;;;;;;26.60;13.13;;;;;;;20.12;100.00;101098.66;5067652;28;20161;-82
2023/08/20 03:00:58;;;;;;;23.20;12.25;;;;;;;20.15;100.00;101103.63;5070413;28;20064;-82
2023/08/20 03:03:24;;;;;;;19.55;12.48;;;;;;;20.14;100.00;101106.69;5054048;28;20033;-82
2023/08/20 03:05:51;;;;;;;20.25;12.77;;;;;;;20.12;100.00;101116.09;5047887;28;20532;-82
2023/08/20 03:08:17;;;;;;;20.60;12.98;;;;;;;20.15;100.00;101125.78;5055135;28;20107;-82
2023/08/20 03:10:43;;;;;;;20.00;12.73;;;;;;;20.14;100.00;101131.63;5052664;28;20391;-81
2023/08/20 03:13:09;;;;;;;18.10;12.00;;;;;;;20.06;100.00;101141.28;5067824;28;20037;-81
2023/08/20 03:15:35;;;;;;;20.27;12.98;;;;;;;20.00;100.00;101142.34;5071223;28;20342;-82
2023/08/20 03:18:02;;;;;;;17.70;12.30;;;;;;;19.95;100.00;101137.59;5070783;28;20066;-82
2023/08/20 03:20:31;;;;;;;18.50;11.48;;;;;;;19.90;100.00;101123.72;5051791;28;20041;-81
2023/08/20 03:22:57;;;;;;;16.27;11.18;;;;;;;19.83;100.00;101123.94;5053786;28;20040;-81
2023/08/20 03:25:23;;;;;;;17.02;11.55;;;;;;;19.77;100.00;101108.41;5067303;28;20318;-81
2023/08/20 03:27:51;;;;;;;14.90;11.73;;;;;;;19.68;100.00;101108.94;5043654;28;20040;-82
2023/08/20 03:30:18;;;;;;;13.77;10.93;;;;;;;19.58;100.00;101111.59;5053238;28;20125;-81
2023/08/20 03:32:45;;;;;;;16.02;10.60;;;;;;;19.44;100.00;101114.00;5047060;28;20033;-81
2023/08/20 03:35:11;;;;;;;16.13;10.90;;;;;;;19.34;100.00;101106.47;5053386;28;20040;-81
2023/08/20 03:37:38;;;;;;;19.42;11.55;;;;;;;19.30;100.00;101104.50;5070501;28;20078;-81
2023/08/20 03:40:04;;;;;;;16.42;11.52;;;;;;;19.11;100.00;101078.09;5054226;28;20041;-82
2023/08/20 03:42:32;;;;;;;17.42;12.02;;;;;;;19.21;100.00;101093.09;5046684;28;20041;-82
2023/08/20 03:45:00;;;;;;;19.98;13.18;;;;;;;19.22;100.00;101078.16;5059453;28;20482;-82
2023/08/20 03:47:26;;;;;;;;;;;;;;;19.23;100.00;101072.38;5066670;28;20033;-83
2023/08/20 03:49:52;;;;;;;19.67;14.10;;;;;;;19.28;100.00;101070.75;5042428;28;19921;-82
2023/08/20 03:52:19;;;;;;;20.67;13.90;;;;;;;19.37;100.00;101060.84;5053636;28;20492;-82
2023/08/20 03:54:45;;;;;;;20.23;14.00;;;;;;;19.43;100.00;101056.19;5030439;28;20047;-81
2023/08/20 03:57:11;;;;;;;16.42;13.30;;;;;;;19.47;100.00;101049.03;5051327;28;20035;-83
2023/08/20 03:59:37;;;;;;;19.75;13.48;;;;;;;19.55;100.00;101043.81;5063111;28;20610;-87
2023/08/20 04:02:04;;;;;;;17.77;12.65;;;;;;;19.59;100.00;101048.81;5051841;28;20043;-82
2023/08/20 04:04:30;;;;;;;19.75;12.30;;;;;;;19.62;100.00;101051.03;5046050;28;20036;-83
2023/08/20 04:06:56;;;;;;;20.15;12.05;;;;;;;19.62;100.00;101057.41;5049873;28;20031;-82
2023/08/20 04:09:22;;;;;;;17.13;11.95;;;;;;;19.61;100.00;101069.56;5048596;28;20036;-83
2023/08/20 04:11:48;;;;;;;16.33;11.93;;;;;;;19.61;100.00;101071.50;5045880;28;20082;-83
2023/08/20 04:14:14;;;;;;;18.80;12.63;;;;;;;19.58;100.00;101072.88;5036586;28;20484;-81
2023/08/20 04:16:41;;;;;;;15.65;11.02;;;;;;;19.52;100.00;101079.47;5050825;28;20045;-83
2023/08/20 04:19:08;;;;;;;17.75;12.18;;;;;;;19.52;100.00;101083.09;5046012;28;20061;-83
2023/08/20 04:21:34;;;;;;;15.68;12.02;;;;;;;19.53;100.00;101084.75;5046906;28;20107;-83
2023/08/20 04:24:00;;;;;;;18.45;12.75;;;;;;;19.53;100.00;101075.63;5059752;28;20093;-84
2023/08/20 04:26:26;;;;;;;19.48;11.95;;;;;;;19.57;100.00;101081.47;5053424;28;20111;-82
2023/08/20 04:28:52;;;;;;;17.48;12.68;;;;;;;19.58;100.00;101078.41;5052443;28;20087;-83
2023/08/20 04:31:19;;;;;;;18.45;12.65;;;;;;;19.60;100.00;101076.19;5040275;28;20079;-83
2023/08/20 04:34:04;;;;;;;16.80;12.30;;;;;;;19.66;100.00;101074.31;5042386;28;20354;-82
2023/08/20 04:36:44;;;;;;;18.52;11.48;;;;;;;19.67;100.00;101067.66;5062454;28;20115;-86
2023/08/20 04:39:11;;;;;;;15.38;10.75;;;;;;;19.64;100.00;101060.75;5055952;28;20333;-87
2023/08/20 04:41:40;;;;;;;16.83;10.90;;;;;;;19.66;100.00;101071.53;5075776;28;20105;-88
2023/08/20 04:44:10;;;;;;;18.08;11.23;;;;;;;19.65;100.00;101073.50;5054508;28;20042;-87
2023/08/20 04:46:37;;;;;;;16.70;10.57;;;;;;;19.66;100.00;101075.16;5043057;28;20389;-82
2023/08/20 04:49:04;;;;;;;16.93;10.33;;;;;;;19.66;100.00;101089.00;5037804;28;20369;-83
2023/08/20 04:51:30;;;;;;;13.15;9.82;;;;;;;19.67;100.00;101098.97;5043316;28;20029;-83
2023/08/20 04:53:56;;;;;;;16.95;10.35;;;;;;;19.65;100.00;101117.78;5049046;28;20342;-82
2023/08/20 04:56:24;;;;;;;16.33;11.05;;;;;;;19.62;100.00;101109.97;5050556;28;20033;-82
2023/08/20 04:58:50;;;;;;;20.60;10.57;;;;;;;19.63;100.00;101122.75;5065382;28;20029;-82
2023/08/20 05:01:36;;;;;;;17.77;10.82;;;;;;;19.63;100.00;101127.44;5069490;28;20040;-82
2023/08/20 05:04:02;;;;;;;15.60;11.10;;;;;;;19.66;100.00;101126.88;5067152;28;20361;-83
2023/08/20 05:06:28;;;;;;;17.50;11.13;;;;;;;19.72;100.00;101120.28;5043582;28;20055;-82
2023/08/20 05:08:55;;;;;;;13.80;10.52;;;;;;;19.81;100.00;101115.94;5052639;28;20476;-82
2023/08/20 05:11:22;;;;;;;15.38;10.55;;;;;;;19.94;100.00;101127.63;5046560;28;20043;-81
2023/08/20 05:13:50;;;;;;;14.15;10.32;;;;;;;20.09;100.00;101133.28;5034563;28;20069;-80
2023/08/20 05:16:16;;;;;;;15.63;9.98;;;;;;;20.26;100.00;101130.28;5029761;28;20175;-82
2023/08/20 05:18:43;;;;;;;13.30;8.95;;;;;;;20.41;100.00;101148.91;5041280;28;20049;-82
2023/08/20 05:21:13;;;;;;;11.82;8.60;;;;;;;20.51;100.00;101186.06;5038382;28;20128;-82
2023/08/20 05:23:40;;;;;;;15.90;8.73;;;;;;;20.72;100.00;101216.63;5024968;28;20069;-82
2023/08/20 05:26:07;;;;;;;15.80;8.03;;;;;;;20.89;100.00;101249.72;5031122;28;20192;-82
2023/08/20 05:28:35;;;;;;;10.90;7.32;;;;;;;21.02;100.00;101263.09;5029527;28;20801;-82
2023/08/20 05:31:01;;;;;;;11.23;7.75;;;;;;;21.17;100.00;101267.84;5021969;28;20034;-83
2023/08/20 05:33:27;;;;;;;11.75;7.00;;;;;;;21.29;100.00;101281.47;5030261;28;20037;-85
2023/08/20 05:35:55;;;;;;;10.88;6.75;;;;;;;21.46;100.00;101311.75;5029206;28;20144;-81
2023/08/20 05:38:22;;;;;;;11.50;6.82;;;;;;;21.57;100.00;101320.94;5030862;28;20033;-85
2023/08/20 05:40:49;;;;;;;10.07;7.05;;;;;;;21.66;100.00;101319.28;5026908;28;20120;-87
2023/08/20 05:43:16;;;;;;;10.38;6.55;;;;;;;21.70;100.00;101325.13;5030588;28;20064;-86
2023/08/20 05:45:42;;;;;;;9.50;6.50;;;;;;;21.65;100.00;101334.28;5021951;28;20029;-91
2023/08/20 05:48:11;;;;;;;10.68;6.70;;;;;;;21.60;100.00;101330.63;5028371;28;20036;-82
2023/08/20 05:50:38;;;;;;;10.23;6.50;;;;;;;21.54;100.00;101324.25;5030901;28;20053;-83
2023/08/20 05:53:05;;;;;;;9.52;6.32;;;;;;;21.50;100.00;101303.72;5047352;28;20030;-85
2023/08/20 05:55:32;;;;;;;8.70;5.57;;;;;;;21.50;100.00;101287.06;5048394;28;20039;-86
2023/08/20 05:58:00;;;;;;;9.20;6.10;;;;;;;21.52;100.00;101279.28;5046243;28;20271;-88
2023/08/20 06:00:27;;;;;;;9.40;5.90;;;;;;;21.41;100.00;101293.13;5049026;28;20537;-89
2023/08/20 06:02:53;;;;;;;12.07;6.63;;;;;;;21.40;100.00;101268.44;5041863;28;20323;-84
2023/08/20 06:05:19;;;;;;;11.52;6.38;;;;;;;21.35;100.00;101269.25;5024258;28;20124;-86
2023/08/20 06:07:45;;;;;;;9.27;6.35;;;;;;;21.29;100.00;101267.59;5043484;28;20064;-87
2023/08/20 06:10:11;;;;;;;9.43;5.93;;;;;;;21.37;100.00;101264.28;5020708;28;20469;-84
2023/08/20 06:12:38;;;;;;;8.82;6.10;;;;;;;21.53;100.00;101278.19;5042448;28;20040;-80
2023/08/20 06:15:05;;;;;;;10.43;5.97;;;;;;;21.56;100.00;101283.19;5071015;28;20462;-90
2023/08/20 06:17:31;;;;;;;8.38;5.63;;;;;;;21.60;100.00;101287.06;5048502;28;20036;-82
2023/08/20 06:19:57;;;;;;;9.57;6.50;;;;;;;21.69;100.00;101296.53;5056714;28;20103;-87
2023/08/20 06:22:23;;;;;;;9.63;5.80;;;;;;;21.82;100.00;101300.69;5052864;28;20119;-83
2023/08/20 06:24:49;;;;;;;10.20;6.53;;;;;;;21.86;100.00;101298.22;5054002;28;20124;-81
2023/08/20 06:27:15;;;;;;;11.30;6.13;;;;;;;22.02;100.00;101309.34;5070212;28;20040;-81
2023/08/20 06:29:41;;;;;;;10.93;6.22;;;;;;;22.00;100.00;101309.59;5051863;28;20104;-85
2023/08/20 06:32:07;;;;;;;12.93;6.47;;;;;;;22.03;100.00;101305.44;5066183;28;20144;-82
2023/08/20 06:34:37;;;;;;;9.07;6.10;;;;;;;22.26;100.00;101315.94;5061659;28;20052;-81
2023/08/20 06:37:03;;;;;;;12.20;5.57;;;;;;;22.39;100.00;101324.84;5056456;28;20075;-84
2023/08/20 06:39:30;;;;;;;10.18;5.38;;;;;;;22.73;100.00;101345.66;5054211;28;20039;-81
2023/08/20 06:41:56;;;;;;;9.02;5.15;;;;;;;22.93;100.00;101358.66;5053494;28;20469;-82
2023/08/20 06:44:26;;;;;;;10.40;4.93;;;;;;;23.04;100.00;101359.44;5030958;28;20057;-82
2023/08/20 06:46:56;;;;;;;8.57;4.50;;;;;;;23.15;100.00;101371.38;5061374;28;20094;-82
2023/08/20 06:49:24;;;;;;;6.65;4.15;;;;;;;23.13;100.00;101394.75;5050137;28;20048;-80
2023/08/20 06:51:50;;;;;;;7.00;4.50;;;;;;;23.16;100.00;101398.09;5066152;28;20101;-81
2023/08/20 06:54:16;;;;;;;7.10;4.07;;;;;;;23.10;100.00;101391.69;5059092;28;20044;-83
2023/08/20 06:56:43;;;;;;;7.60;4.20;;;;;;;23.28;100.00;101395.81;5044696;28;20040;-78
2023/08/20 06:59:10;;;;;;;6.53;4.10;;;;;;;23.49;100.00;101396.56;5050022;28;20033;-79
2023/08/20 07:01:36;;;;;;;7.45;4.22;;;;;;;23.50;100.00;101380.69;5064542;28;20362;-78
2023/08/20 07:04:02;;;;;;;8.27;3.90;;;;;;;23.56;100.00;101387.88;5065206;28;20037;-79
2023/08/20 07:06:29;;;;;;;8.05;3.97;;;;;;;23.66;100.00;101396.19;5064195;28;20040;-82
2023/08/20 07:08:55;;;;;;;6.90;3.92;;;;;;;23.81;100.00;101400.84;5041955;28;20079;-81
2023/08/20 07:11:22;;;;;;;7.55;4.15;;;;;;;23.84;100.00;101404.97;5063431;28;20036;-84
2023/08/20 07:13:48;;;;;;;8.93;3.67;;;;;;;23.93;100.00;101397.69;5064867;28;20171;-83
2023/08/20 07:16:14;;;;;;;7.32;3.38;;;;;;;23.97;100.00;101400.72;5061696;28;20105;-85
2023/08/20 07:18:40;;;;;;;8.50;3.40;;;;;;;23.91;100.00;101411.09;5046200;28;20115;-83
2023/08/20 07:21:07;;;;;;;6.32;2.67;;;;;;;23.84;100.00;101411.41;5043878;28;20459;-88
2023/08/20 07:23:35;;;;;;;8.32;3.03;;;;;;;24.01;100.00;101417.69;5048340;28;20139;-86
2023/08/20 07:26:09;;;;;;;5.38;2.80;;;;;;;24.16;100.00;101416.78;5070986;28;20072;-85
2023/08/20 07:31:21;;;;;;;6.38;2.30;;;;;;;24.16;100.00;101412.06;5085559;28;20135;-82
2023/08/20 07:33:47;;;;;;;6.13;2.50;;;;;;;24.22;100.00;101402.53;5051862;28;20037;-88
2023/08/20 07:36:14;;;;;;;6.87;2.60;;;;;;;24.24;100.00;101402.22;5040848;28;20039;-88
2023/08/20 07:38:42;;;;;;;7.32;2.80;;;;;;;24.20;100.00;101407.56;5056313;28;20094;-83
2023/08/20 07:41:09;;;;;;;7.13;3.10;;;;;;;24.34;100.00;101420.81;5068450;28;20526;-83
2023/08/20 07:43:36;;;;;;;6.25;2.88;;;;;;;24.38;100.00;101416.31;5069508;28;20488;-85
2023/08/20 07:46:02;;;;;;;6.50;3.05;;;;;;;24.34;100.00;101409.66;5067183;28;20112;-85
2023/08/20 07:48:28;;;;;;;8.95;3.13;;;;;;;24.59;100.00;101418.91;5069556;28;20044;-80
2023/08/20 07:50:54;;;;;;;7.60;2.97;;;;;;;24.71;100.00;101413.78;5041905;28;20024;-81
2023/08/20 07:53:20;;;;;;;8.00;3.20;;;;;;;24.74;100.00;101413.19;5066443;28;20401;-81
2023/08/20 07:55:47;;;;;;;8.05;3.50;;;;;;;24.88;100.00;101406.94;5057219;28;20387;-81
2023/08/20 07:58:13;;;;;;;6.13;3.13;;;;;;;24.97;100.00;101402.38;5061359;28;20489;-83
2023/08/20 08:00:40;;;;;;;6.95;3.67;;;;;;;24.83;100.00;101410.63;5044407;28;20378;-83
2023/08/20 08:03:09;;;;;;;7.93;3.30;;;;;;;24.66;100.00;101399.88;5038658;28;20124;-84
2023/08/20 08:05:36;;;;;;;6.63;2.97;;;;;;;24.79;100.00;101418.75;5037830;28;20543;-85
2023/08/20 08:08:02;;;;;;;6.35;2.97;;;;;;;24.86;100.00;101424.00;5062028;28;20281;-82
2023/08/20 08:10:29;;;;;;;8.45;3.22;;;;;;;24.84;100.00;101427.06;5069520;28;20037;-83
2023/08/20 08:12:55;;;;;;;6.35;3.22;;;;;;;24.97;100.00;101403.19;5065097;28;20060;-83
2023/08/20 08:15:21;;;;;;;9.20;3.60;;;;;;;25.06;100.00;101411.75;5062700;28;20040;-87
2023/08/20 08:17:48;;;;;;;8.65;3.50;;;;;;;25.49;100.00;101416.56;5047519;28;20037;-86
2023/08/20 08:20:14;;;;;;;6.28;3.28;;;;;;;25.50;100.00;101420.19;5079399;28;20028;-89
2023/08/20 08:22:41;;;;;;;6.72;3.70;;;;;;;25.88;100.00;101428.59;5059322;28;20032;-89
2023/08/20 08:25:07;;;;;;;6.93;3.75;;;;;;;25.93;100.00;101428.50;5039504;28;20045;-85
2023/08/20 08:27:33;;;;;;;6.50;3.13;;;;;;;25.99;100.00;101434.84;5067429;28;20033;-82
2023/08/20 08:30:00;;;;;;;5.25;2.97;;;;;;;26.26;100.00;101420.19;5069568;28;20058;-83
2023/08/20 08:32:26;;;;;;;7.05;3.20;;;;;;;26.44;100.00;101423.25;5060104;28;20068;-89
2023/08/20 08:34:52;;;;;;;6.93;3.10;;;;;;;26.27;100.00;101423.81;5067068;28;20185;-86
2023/08/20 08:37:18;;;;;;;6.03;3.22;;;;;;;26.34;100.00;101423.44;5051289;28;20040;-84
2023/08/20 08:39:44;;;;;;;8.93;3.13;;;;;;;26.54;100.00;101433.44;5057383;28;20029;-83
2023/08/20 08:42:12;;;;;;;6.05;3.10;;;;;;;26.70;100.00;101426.44;5066183;28;20127;-82
2023/08/20 08:44:39;;;;;;;;;;;;;;;26.55;100.00;101437.88;5065873;28;20048;-83
2023/08/20 08:47:05;;;;;;;6.70;2.90;;;;;;;27.11;100.00;101430.44;5068612;28;19924;-84
2023/08/20 08:49:35;;;;;;;5.70;3.35;;;;;;;27.23;100.00;101426.25;5064564;28;20043;-84
2023/08/20 08:52:03;;;;;;;6.25;3.00;;;;;;;26.87;100.00;101429.78;5063082;28;20120;-82
2023/08/20 08:54:30;;;;;;;5.05;2.60;;;;;;;27.19;100.00;101430.84;5064013;28;20078;-83
2023/08/20 08:56:56;;;;;;;5.60;2.60;;;;;;;27.35;100.00;101423.78;5062185;28;20140;-88
2023/08/20 08:59:22;;;;;;;7.63;3.17;;;;;;;27.58;100.00;101421.06;5043958;28;20041;-87
2023/08/20 09:01:49;;;;;;;4.57;2.90;;;;;;;27.31;100.00;101417.13;5064287;28;20289;-83
2023/08/20 09:04:15;;;;;;;6.32;2.30;;;;;;;27.30;100.00;101432.28;5065959;28;20044;-83
2023/08/20 09:06:50;;;;;;;5.78;2.45;;;;;;;27.65;100.00;101432.69;5063065;28;20040;-84
2023/08/20 09:09:18;;;;;;;6.55;3.00;;;;;;;27.84;100.00;101437.28;5085650;28;20029;-87
2023/08/20 09:11:45;;;;;;;5.78;2.70;;;;;;;27.43;100.00;101430.59;5083226;28;21836;-86
2023/08/20 09:14:22;;;;;;;5.17;2.60;;;;;;;27.24;100.00;101439.97;5087609;28;20045;-85
2023/08/20 09:16:58;;;;;;;5.63;2.88;;;;;;;27.68;100.00;101432.06;5077403;28;20297;-88
2023/08/20 09:19:27;;;;;;;4.07;2.30;;;;;;;28.05;100.00;101440.47;5067320;28;20087;-86
2023/08/20 09:21:55;;;;;;;6.55;2.88;;;;;;;28.32;100.00;101440.66;5062681;28;20060;-83
2023/08/20 09:24:38;;;;;;;5.25;2.58;;;;;;;28.39;100.00;101433.47;5067021;28;20496;-87
2023/08/20 09:27:05;;;;;;;5.47;2.58;;;;;;;28.35;100.00;101437.22;5068070;28;20046;-89
2023/08/20 09:29:51;;;;;;;6.47;2.80;;;;;;;28.50;100.00;101439.66;5062991;28;20542;-90
2023/08/20 09:32:22;;;;;;;6.85;2.80;;;;;;;28.64;97.78;101439.56;5066322;28;20037;-85
2023/08/20 09:34:50;;;;;;;6.78;2.65;;;;;;;28.73;95.74;101436.81;5058378;28;20072;-84
2023/08/20 09:37:17;;;;;;;;;;;;;;;28.57;100.00;101433.59;5073259;28;20032;-86
2023/08/20 09:39:44;;;;;;;6.30;2.53;;;;;;;28.76;100.00;101427.75;5063099;28;19999;-86
2023/08/20 09:42:12;;;;;;;6.07;2.60;;;;;;;28.73;99.67;101431.19;5053133;28;20040;-86
2023/08/20 09:44:40;;;;;;;3.80;1.90;;;;;;;28.10;76.04;101419.84;5067632;28;20044;-80
2023/08/20 09:47:08;;;;;;;4.82;1.92;;;;;;;28.20;86.21;101425.25;5066954;28;20021;-82
2023/08/20 09:49:40;;;;;;;5.25;2.17;;;;;;;27.88;82.73;101423.47;5049432;28;20056;-79
2023/08/20 09:52:08;;;;;;;3.78;2.10;;;;;;;27.63;84.98;101418.16;5069837;28;20425;-87
2023/08/20 09:54:46;;;;;;;3.92;2.20;;;;;;;27.71;87.96;101414.59;5068501;28;20068;-87
2023/08/20 09:57:21;;;;;;;4.40;2.30;;;;;;;28.09;90.78;101415.41;5058199;28;20162;-86
2023/08/20 09:59:47;;;;;;;3.60;2.08;;;;;;;28.53;78.84;101421.34;5064076;28;20459;-87
2023/08/20 10:02:14;;;;;;;3.50;1.90;;;;;;;28.52;80.51;101412.09;5060853;28;20118;-86
2023/08/20 10:04:42;;;;;;;4.47;1.90;;;;;;;29.08;75.29;101413.72;5054317;28;20507;-85
2023/08/20 10:07:09;;;;;;;6.40;2.53;;;;;;;29.56;71.25;101415.66;5059180;28;21753;-88
2023/08/20 10:09:37;;;;;;;4.85;2.17;;;;;;;29.81;80.63;101423.63;5052841;28;20165;-87
2023/08/20 10:12:03;;;;;;;6.22;2.22;;;;;;;29.91;74.65;101416.84;5059757;28;20060;-83
2023/08/20 10:14:29;;;;;;;4.22;2.00;;;;;;;30.73;77.08;101418.88;5031316;28;20411;-83
2023/08/20 10:16:56;;;;;;;4.45;2.10;;;;;;;31.66;66.42;101417.41;5064018;28;20041;-87
2023/08/20 10:19:23;;;;;;;5.25;1.80;;;;;;;31.82;57.15;101414.81;5059110;28;20044;-86
2023/08/20 10:21:52;;;;;;;4.53;1.83;;;;;;;32.90;53.63;101419.91;5063040;28;20040;-86
2023/08/20 10:24:19;;;;;;;6.28;2.00;;;;;;;33.75;48.13;101408.06;5056536;28;20029;-85
2023/08/20 10:26:48;;;;;;;4.53;1.53;;;;;;;34.48;44.67;101417.44;5059333;28;20116;-83
2023/08/20 10:29:43;;;;;;;5.05;1.90;;;;;;;35.98;39.91;101417.72;5060383;28;20083;-84
2023/08/20 10:32:12;;;;;;;4.00;1.77;;;;;;;35.93;41.32;101420.88;5044964;28;20033;-85
2023/08/20 10:34:49;;;;;;;5.28;1.65;;;;;;;36.07;36.18;101411.03;5038698;28;20062;-86
2023/08/20 10:37:27;;;;;;;4.82;1.95;;;;;;;36.64;36.54;101419.84;5057535;28;20040;-88
2023/08/20 10:39:57;;;;;;;3.65;1.60;;;;;;;37.75;35.83;101418.31;5076142;28;20029;-87
2023/08/20 10:42:26;;;;;;;4.20;1.88;;;;;;;37.56;37.80;101428.63;5085040;28;20476;-87
2023/08/20 10:45:08;;;;;;;5.30;1.90;;;;;;;38.02;35.08;101423.94;5079390;28;20067;-85
2023/08/20 10:47:45;;;;;;;3.47;1.70;;;;;;;38.22;31.23;101411.16;5081053;28;20028;-83
2023/08/20 10:50:15;;;;;;;3.53;1.48;;;;;;;37.88;30.33;101402.59;5063868;28;20068;-83
2023/08/20 10:52:47;;;;;;;4.47;1.90;;;;;;;38.98;31.19;101425.28;5072059;28;20033;-85
2023/08/20 10:55:14;;;;;;;5.38;1.40;;;;;;;39.31;30.46;101425.53;5062727;28;20032;-85
2023/08/20 10:57:41;;;;;;;2.72;1.50;;;;;;;37.64;31.54;101427.50;5063172;28;20043;-85
2023/08/20 11:00:14;;;;;;;3.85;1.50;;;;;;;39.84;29.77;101425.03;5054004;28;22166;-87
2023/08/20 11:02:42;;;;;;;4.10;1.50;;;;;;;38.82;31.73;101432.09;5051653;28;20032;-88
2023/08/20 11:05:17;;;;;;;4.18;1.50;;;;;;;38.47;32.91;101432.56;5040226;28;20044;-89
2023/08/20 11:07:47;;;;;;;5.35;1.90;;;;;;;37.36;34.42;101431.56;5065679;28;20048;-88
2023/08/20 11:10:30;;;;;;;;;;;;;;;;;;;;;
2023/08/20 11:16:46;;;;;;;3.55;1.40;;;;;;;35.84;31.98;101408.94;5066100;28;20040;-86
2023/08/20 11:19:22;;;;;;;4.10;1.48;;;;;;;35.64;33.07;101414.59;5063450;28;20047;-85
2023/08/20 11:21:49;;;;;;;3.43;1.70;;;;;;;35.52;33.35;101414.72;5062507;28;20099;-83